Time;durP1;ratioP1;P1;durP2;ratioP2;P2;SDS_P1;SDS_P2;PMS_P1;PMS_P2;Temp;Humidity;BMP_temperature;BMP_pressure;BME280_temperature;BME280_humidity;BME280_pressure;Samples;Min_cycle;Max_cycle;Signal;HPM_P1;HPM_P2
2023/04/28 00:02:29;;;;;;;13.33;10.10;;;12.70;99.90;;;;;;4957311;29;20194;-85
2023/04/28 00:04:55;;;;;;;19.60;9.60;;;12.60;99.90;;;;;;4938061;29;20238;-84
2023/04/28 00:07:20;;;;;;;12.77;9.00;;;12.40;99.90;;;;;;4949230;29;20812;-83
2023/04/28 00:09:46;;;;;;;25.73;10.00;;;12.40;99.90;;;;;;4948602;29;20186;-84
2023/04/28 00:12:12;;;;;;;12.63;10.20;;;12.30;99.90;;;;;;4949251;29;20221;-83
2023/04/28 00:14:37;;;;;;;16.97;10.10;;;12.30;99.90;;;;;;4950458;29;20213;-83
2023/04/28 00:17:03;;;;;;;12.80;9.47;;;12.30;99.90;;;;;;4949560;29;20197;-83
2023/04/28 00:19:29;;;;;;;15.73;8.90;;;12.30;99.90;;;;;;4949291;29;20186;-83
2023/04/28 00:21:54;;;;;;;21.73;10.43;;;12.30;99.90;;;;;;4947932;29;20835;-83
2023/04/28 00:24:20;;;;;;;12.30;9.63;;;12.40;99.90;;;;;;4949304;29;20216;-84
2023/04/28 00:26:45;;;;;;;15.17;9.73;;;12.50;99.90;;;;;;4948525;29;20192;-83
2023/04/28 00:29:11;;;;;;;13.77;9.63;;;12.50;99.90;;;;;;4945867;29;20210;-83
2023/04/28 00:31:36;;;;;;;18.17;10.80;;;12.60;99.90;;;;;;4956351;29;20189;-82
2023/04/28 00:34:02;;;;;;;14.03;10.20;;;12.70;99.90;;;;;;4937971;29;20622;-81
2023/04/28 00:36:31;;;;;;;12.07;10.13;;;12.70;99.90;;;;;;4930889;29;20670;-79
2023/04/28 00:38:57;;;;;;;18.07;11.30;;;12.60;99.90;;;;;;4932320;28;20329;-83
2023/04/28 00:41:23;;;;;;;14.30;10.40;;;12.60;99.90;;;;;;4938091;29;20426;-82
2023/04/28 00:43:49;;;;;;;12.80;9.80;;;12.60;99.90;;;;;;4936637;29;20545;-81
2023/04/28 00:46:28;;;;;;;19.23;12.77;;;12.50;99.90;;;;;;4938325;29;20190;-81
2023/04/28 00:48:54;;;;;;;17.57;11.77;;;12.50;99.90;;;;;;4938204;29;20477;-82
2023/04/28 00:51:23;;;;;;;14.77;11.50;;;12.50;99.90;;;;;;4937037;29;20439;-81
2023/04/28 00:53:51;;;;;;;17.57;10.27;;;12.50;99.90;;;;;;4935743;29;20481;-81
2023/04/28 00:56:17;;;;;;;14.87;11.00;;;12.50;99.90;;;;;;4929366;29;20462;-81
2023/04/28 00:58:43;;;;;;;17.23;11.30;;;12.50;99.90;;;;;;4918574;29;20474;-81
2023/04/28 01:01:09;;;;;;;15.40;9.97;;;12.50;99.90;;;;;;4945923;29;20437;-83
2023/04/28 01:03:37;;;;;;;18.40;10.90;;;12.40;99.90;;;;;;4926809;29;20222;-81
2023/04/28 01:06:09;;;;;;;17.97;11.17;;;12.40;99.90;;;;;;4936594;28;21003;-82
2023/04/28 01:08:36;;;;;;;15.90;11.20;;;12.30;99.90;;;;;;4939663;29;20576;-84
2023/04/28 01:11:13;;;;;;;15.67;11.57;;;12.20;99.90;;;;;;4938375;29;20453;-83
2023/04/28 01:13:51;;;;;;;16.03;11.60;;;12.10;99.90;;;;;;5002784;23;20550;-82
2023/04/28 01:16:37;;;;;;;17.90;10.27;;;12.00;99.90;;;;;;4994560;28;20465;-82
2023/04/28 01:19:41;;;;;;;14.37;10.97;;;12.00;99.90;;;;;;4982321;28;20489;-82
2023/04/28 01:22:14;;;;;;;17.23;10.70;;;12.00;99.90;;;;;;5007698;28;20454;-81
2023/04/28 01:24:39;;;;;;;15.73;10.27;;;12.00;99.90;;;;;;4988467;28;21022;-82
2023/04/28 01:27:05;;;;;;;18.57;11.30;;;12.00;1.00;;;;;;4995830;28;20483;-81
2023/04/28 01:29:30;;;;;;;23.80;11.80;;;12.10;1.00;;;;;;4993796;28;20194;-82
2023/04/28 01:31:56;;;;;;;14.00;10.90;;;12.20;1.00;;;;;;4988203;28;20198;-81
2023/04/28 01:34:22;;;;;;;24.33;14.50;;;12.20;1.00;;;;;;4993330;28;20262;-83
2023/04/28 01:36:50;;;;;;;21.53;12.57;;;12.20;1.00;;;;;;4994890;28;20266;-81
2023/04/28 01:39:16;;;;;;;17.37;11.13;;;12.20;1.00;;;;;;4995245;28;20270;-83
2023/04/28 01:41:47;;;;;;;16.00;11.03;;;12.10;1.00;;;;;;4995733;28;20979;-81
2023/04/28 01:44:53;;;;;;;19.93;12.17;;;12.10;1.00;;;;;;4993586;28;20200;-83
2023/04/28 01:47:19;;;;;;;17.93;10.70;;;12.00;99.90;;;;;;4975329;28;20963;-80
2023/04/28 01:49:47;;;;;;;18.83;10.80;;;11.90;99.90;;;;;;4976385;28;20434;-82
2023/04/28 01:52:12;;;;;;;19.40;12.27;;;11.80;99.90;;;;;;4989530;28;20183;-81
2023/04/28 01:54:51;;;;;;;;;;;;;;;;;;;;;
2023/04/28 01:57:19;;;;;;;19.80;11.40;;;11.70;99.90;;;;;;4990583;28;20199;-83
2023/04/28 01:59:45;;;;;;;27.27;12.50;;;11.60;1.00;;;;;;4993570;28;20496;-81
2023/04/28 02:02:10;;;;;;;17.00;12.10;;;11.60;1.00;;;;;;4990937;28;20932;-81
2023/04/28 02:04:39;;;;;;;18.37;13.10;;;11.60;1.00;;;;;;4986805;28;20227;-81
2023/04/28 02:07:06;;;;;;;21.40;13.47;;;11.50;99.90;;;;;;4975074;28;20190;-81
2023/04/28 02:09:32;;;;;;;25.17;13.70;;;11.50;1.00;;;;;;4992317;28;20478;-82
2023/04/28 02:11:58;;;;;;;25.93;13.57;;;11.40;81.10;;;;;;4985223;28;20431;-82
2023/04/28 02:14:27;;;;;;;30.03;13.20;;;11.40;99.90;;;;;;4994011;28;20465;-82
2023/04/28 02:16:53;;;;;;;19.93;11.80;;;11.40;1.00;;;;;;4999771;28;20967;-82
2023/04/28 02:19:18;;;;;;;18.20;11.73;;;11.40;1.00;;;;;;4997280;28;20474;-84
2023/04/28 02:21:44;;;;;;;19.23;11.53;;;11.40;1.00;;;;;;4987530;28;20195;-84
2023/04/28 02:24:10;;;;;;;17.60;12.67;;;11.40;1.00;;;;;;4978993;28;20226;-82
2023/04/28 02:26:36;;;;;;;18.63;12.47;;;11.50;1.00;;;;;;5005025;28;20439;-83
2023/04/28 02:29:03;;;;;;;19.63;11.40;;;11.50;1.00;;;;;;5003332;28;20562;-84
2023/04/28 02:31:28;;;;;;;20.00;11.63;;;11.50;1.00;;;;;;5004612;28;20191;-83
2023/04/28 02:33:54;;;;;;;21.97;12.93;;;11.50;1.00;;;;;;4998495;28;20458;-83
2023/04/28 02:36:30;;;;;;;25.60;12.70;;;11.50;1.00;;;;;;5002178;28;20187;-81
2023/04/28 02:38:55;;;;;;;27.70;13.67;;;11.60;1.00;;;;;;4980355;28;20463;-84
2023/04/28 02:41:33;;;;;;;18.20;12.80;;;11.50;99.90;;;;;;5003179;28;20474;-85
2023/04/28 02:44:04;;;;;;;17.83;12.03;;;11.60;99.90;;;;;;5004892;28;20207;-84
2023/04/28 02:46:30;;;;;;;25.97;11.77;;;11.60;99.90;;;;;;4982622;28;20440;-84
2023/04/28 02:48:55;;;;;;;17.30;11.63;;;11.60;1.00;;;;;;5004624;28;20473;-83
2023/04/28 02:51:39;;;;;;;21.33;11.30;;;11.60;99.90;;;;;;5000689;28;20191;-85
2023/04/28 02:54:04;;;;;;;19.03;10.20;;;11.60;99.90;;;;;;4999823;28;20207;-84
2023/04/28 02:56:30;;;;;;;15.03;11.07;;;11.70;99.90;;;;;;5001063;28;20512;-84
2023/04/28 02:58:56;;;;;;;17.60;11.53;;;11.70;99.90;;;;;;5004306;28;20219;-82
2023/04/28 03:01:21;;;;;;;13.87;10.17;;;11.80;67.60;;;;;;5005054;28;20247;-84
2023/04/28 03:03:47;;;;;;;13.50;11.07;;;11.80;1.00;;;;;;5009045;28;20227;-83
2023/04/28 03:06:13;;;;;;;12.83;11.07;;;11.80;1.00;;;;;;4988243;28;20424;-84
2023/04/28 03:08:38;;;;;;;12.97;10.90;;;11.80;99.90;;;;;;5010256;28;20244;-83
2023/04/28 03:11:04;;;;;;;16.40;11.63;;;11.80;1.00;;;;;;4982552;28;20192;-84
2023/04/28 03:13:29;;;;;;;15.10;11.33;;;11.80;1.00;;;;;;5005540;28;20193;-84
2023/04/28 03:16:01;;;;;;;15.27;12.17;;;11.80;27.40;;;;;;5009117;28;20210;-84
2023/04/28 03:18:27;;;;;;;14.13;11.43;;;11.70;1.00;;;;;;5007345;28;20218;-82
2023/04/28 03:20:52;;;;;;;16.30;11.77;;;11.70;99.90;;;;;;5005711;28;20418;-83
2023/04/28 03:23:18;;;;;;;12.40;11.07;;;11.70;1.00;;;;;;5009199;28;20187;-84
2023/04/28 03:25:43;;;;;;;16.63;12.50;;;11.60;99.90;;;;;;5007333;28;20248;-81
2023/04/28 03:28:09;;;;;;;12.83;11.53;;;11.70;99.90;;;;;;5009731;28;20267;-82
2023/04/28 03:30:35;;;;;;;17.60;13.27;;;11.60;1.00;;;;;;5010693;28;20180;-84
2023/04/28 03:33:00;;;;;;;17.57;13.30;;;11.60;1.00;;;;;;5008447;28;20433;-84
2023/04/28 03:35:26;;;;;;;17.47;12.37;;;11.60;99.90;;;;;;5010075;28;20282;-83
2023/04/28 03:37:52;;;;;;;17.17;12.17;;;11.50;99.90;;;;;;5010953;28;20881;-84
2023/04/28 03:40:28;;;;;;;14.53;11.80;;;11.40;1.00;;;;;;4992897;28;20203;-83
2023/04/28 03:42:56;;;;;;;17.50;12.97;;;11.40;1.00;;;;;;5010537;28;20182;-83
2023/04/28 03:45:31;;;;;;;14.53;11.50;;;11.40;1.00;;;;;;5006625;28;20458;-82
2023/04/28 03:51:36;;;;;;;;;;;;;;;;;;;;;
2023/04/28 03:57:00;;;;;;;15.63;12.23;;;11.50;99.90;;;;;;5008976;28;20439;-84
2023/04/28 03:59:26;;;;;;;15.43;12.30;;;11.50;1.00;;;;;;5011876;28;20424;-83
2023/04/28 04:01:51;;;;;;;15.90;12.30;;;11.50;1.00;;;;;;5010409;28;21147;-82
2023/04/28 04:04:17;;;;;;;15.80;12.43;;;11.60;1.00;;;;;;5015165;28;20199;-81
2023/04/28 04:06:42;;;;;;;14.00;12.23;;;11.60;1.00;;;;;;4999700;28;20288;-81
2023/04/28 04:09:08;;;;;;;16.30;12.60;;;11.60;1.00;;;;;;4997828;28;20715;-80
2023/04/28 04:11:33;;;;;;;13.87;12.10;;;11.60;1.00;;;;;;4972846;28;20858;-81
2023/04/28 04:13:59;;;;;;;13.43;11.13;;;11.60;1.00;;;;;;4997105;28;20253;-82
2023/04/28 04:16:24;;;;;;;18.00;11.63;;;11.70;1.00;;;;;;4998053;28;20188;-83
2023/04/28 04:18:50;;;;;;;17.33;12.43;;;11.80;1.00;;;;;;4996921;28;20187;-81
2023/04/28 04:21:15;;;;;;;16.90;14.20;;;11.80;1.00;;;;;;4995675;28;20688;-81
2023/04/28 04:23:41;;;;;;;18.00;13.47;;;11.90;99.90;;;;;;4995786;28;20211;-82
2023/04/28 04:26:06;;;;;;;16.10;13.40;;;11.90;1.00;;;;;;4995386;28;20270;-80
2023/04/28 04:28:32;;;;;;;18.77;13.93;;;11.90;1.00;;;;;;4978901;28;20219;-81
2023/04/28 04:30:58;;;;;;;15.03;12.67;;;11.90;1.00;;;;;;4996564;28;20202;-81
2023/04/28 04:33:24;;;;;;;16.17;12.70;;;11.90;1.00;;;;;;4996140;28;20513;-84
2023/04/28 04:35:49;;;;;;;15.43;12.93;;;11.90;1.00;;;;;;4994722;28;20684;-82
2023/04/28 04:38:15;;;;;;;15.03;11.93;;;11.90;1.00;;;;;;4996557;28;20532;-81
2023/04/28 04:40:40;;;;;;;15.03;11.90;;;12.00;1.00;;;;;;4996353;28;20560;-81
2023/04/28 04:43:05;;;;;;;15.60;12.73;;;12.00;1.00;;;;;;4995213;28;20192;-81
2023/04/28 04:45:31;;;;;;;17.37;14.77;;;12.00;1.00;;;;;;4978885;28;20204;-82
2023/04/28 04:47:57;;;;;;;23.43;14.90;;;12.00;1.00;;;;;;4981550;28;20207;-81
2023/04/28 04:50:22;;;;;;;18.57;15.03;;;12.00;1.00;;;;;;4977101;28;20216;-83
2023/04/28 04:52:48;;;;;;;23.30;15.90;;;12.00;1.00;;;;;;4973341;28;20187;-82
2023/04/28 04:55:13;;;;;;;24.27;15.90;;;12.00;1.00;;;;;;4981365;28;20752;-82
2023/04/28 04:57:39;;;;;;;24.30;16.93;;;12.10;1.00;;;;;;4997613;28;20214;-84
2023/04/28 05:00:05;;;;;;;23.93;15.20;;;12.10;1.00;;;;;;4996968;28;20195;-81
2023/04/28 05:02:30;;;;;;;18.43;14.70;;;12.10;1.00;;;;;;4979940;28;20279;-81
2023/04/28 05:05:07;;;;;;;17.87;15.40;;;12.20;1.00;;;;;;4998099;28;20494;-82
2023/04/28 05:07:48;;;;;;;17.43;14.23;;;12.20;1.00;;;;;;4995462;28;20226;-81
2023/04/28 05:10:31;;;;;;;19.20;15.10;;;12.20;1.00;;;;;;4975691;28;20504;-82
2023/04/28 05:13:09;;;;;;;19.10;15.20;;;12.30;1.00;;;;;;4992702;28;20816;-82
2023/04/28 05:16:13;;;;;;;19.07;16.10;;;12.30;1.00;;;;;;4973414;28;20492;-82
2023/04/28 05:22:22;;;;;;;21.13;17.80;;;12.20;1.00;;;;;;4986967;28;20493;-83
2023/04/28 05:28:43;;;;;;;21.93;18.73;;;12.10;1.00;;;;;;4992144;28;20484;-83
2023/04/28 05:38:44;;;;;;;33.20;18.73;;;12.10;1.00;;;;;;4996944;28;20438;-82
2023/04/28 05:41:50;;;;;;;21.60;17.40;;;12.10;1.00;;;;;;4955830;28;20470;-81
2023/04/28 05:44:27;;;;;;;21.23;17.00;;;12.20;99.90;;;;;;4968651;28;20510;-81
2023/04/28 05:47:43;;;;;;;20.40;18.20;;;12.30;99.90;;;;;;4977732;28;20438;-81
2023/04/28 05:51:21;;;;;;;21.40;17.53;;;12.30;99.90;;;;;;4991350;28;20822;-82
2023/04/28 05:54:23;;;;;;;22.33;17.60;;;12.20;99.90;;;;;;4887198;29;20883;-83
2023/04/28 06:00:27;;;;;;;20.13;15.53;;;12.10;99.90;;;;;;4992508;28;20449;-83
2023/04/28 06:02:53;;;;;;;18.00;15.67;;;12.20;99.90;;;;;;4972276;28;20439;-82
2023/04/28 06:05:54;;;;;;;27.50;15.40;;;12.20;99.90;;;;;;4999213;28;20450;-81
2023/04/28 06:08:42;;;;;;;16.03;13.63;;;12.20;68.20;;;;;;4995634;28;20496;-82
2023/04/28 06:11:27;;;;;;;;;;;;;;;;;;;;;
2023/04/28 06:17:08;;;;;;;20.27;15.90;;;12.50;99.90;;;;;;4937858;29;20599;-83
2023/04/28 06:19:33;;;;;;;24.50;17.77;;;12.60;72.00;;;;;;4993395;28;20427;-83
2023/04/28 06:21:59;;;;;;;23.30;18.70;;;12.60;99.90;;;;;;5007628;28;20430;-82
2023/04/28 06:24:25;;;;;;;24.03;18.90;;;12.60;1.00;;;;;;5005809;28;20219;-82
2023/04/28 06:26:50;;;;;;;22.53;17.43;;;12.80;1.00;;;;;;4999326;28;20234;-82
2023/04/28 06:29:20;;;;;;;21.33;16.13;;;12.90;99.90;;;;;;5003438;28;20203;-82
2023/04/28 06:32:36;;;;;;;17.40;15.10;;;12.90;99.90;;;;;;4987910;28;20407;-83
2023/04/28 06:35:56;;;;;;;;;;;;;;;;;;;;;
2023/04/28 06:38:53;;;;;;;16.97;15.20;;;13.00;1.00;;;;;;4950409;29;20460;-84
2023/04/28 06:41:34;;;;;;;18.37;14.97;;;13.10;99.90;;;;;;4901310;29;20867;-82
2023/04/28 06:44:45;;;;;;;18.83;14.60;;;13.30;1.00;;;;;;4902939;29;20460;-83
2023/04/28 06:47:43;;;;;;;20.40;15.60;;;13.30;1.00;;;;;;4895982;29;20435;-83
2023/04/28 06:50:20;;;;;;;17.47;14.30;;;13.40;99.90;;;;;;4947377;29;20579;-81
2023/04/28 06:53:04;;;;;;;17.53;14.37;;;13.40;99.90;;;;;;4922913;29;20426;-82
2023/04/28 06:55:52;;;;;;;18.70;14.70;;;13.40;99.90;;;;;;4922483;29;20457;-82
2023/04/28 06:58:19;;;;;;;15.80;12.80;;;13.60;69.00;;;;;;4925152;28;20434;-83
2023/04/28 07:01:02;;;;;;;16.10;13.63;;;13.60;1.00;;;;;;5007571;28;20429;-82
2023/04/28 07:03:49;;;;;;;16.50;14.27;;;13.60;1.00;;;;;;4990112;28;20411;-82
2023/04/28 07:06:15;;;;;;;17.23;13.73;;;13.60;1.00;;;;;;4983901;28;20482;-82
2023/04/28 07:09:04;;;;;;;16.40;12.00;;;13.90;1.00;;;;;;4992696;28;20473;-82
2023/04/28 07:11:36;;;;;;;17.10;12.80;;;14.20;99.90;;;;;;5010795;28;20420;-82
2023/04/28 07:14:16;;;;;;;16.33;11.80;;;14.40;99.90;;;;;;4993177;28;20464;-83
2023/04/28 07:16:52;;;;;;;17.93;12.23;;;14.50;99.90;;;;;;4986264;28;21032;-82
2023/04/28 07:19:27;;;;;;;17.00;12.90;;;14.60;1.00;;;;;;4989557;28;20451;-82
2023/04/28 07:22:01;;;;;;;13.53;11.03;;;14.80;1.00;;;;;;4992700;28;21017;-82
2023/04/28 07:24:35;;;;;;;14.53;10.77;;;14.80;99.90;;;;;;5008373;28;20467;-83
2023/04/28 07:27:20;;;;;;;14.23;10.40;;;14.80;99.90;;;;;;5011300;28;20426;-83
2023/04/28 07:29:46;;;;;;;15.70;10.77;;;15.00;99.90;;;;;;5004539;28;20473;-83
2023/04/28 07:32:14;;;;;;;13.57;9.60;;;15.10;99.90;;;;;;5012241;28;20445;-82
2023/04/28 07:34:39;;;;;;;12.77;11.40;;;15.30;99.90;;;;;;5004151;28;20209;-83
2023/04/28 07:37:10;;;;;;;11.63;10.43;;;15.40;1.00;;;;;;5013532;28;20504;-83
2023/04/28 07:39:38;;;;;;;12.10;9.63;;;15.50;1.00;;;;;;4992828;28;20197;-81
2023/04/28 07:42:06;;;;;;;15.20;10.40;;;15.60;1.00;;;;;;5005481;28;20532;-82
2023/04/28 07:44:32;;;;;;;11.83;9.87;;;15.80;1.00;;;;;;5004915;28;20831;-82
2023/04/28 07:47:07;;;;;;;19.20;10.40;;;16.30;99.90;;;;;;5006553;28;20426;-82
2023/04/28 07:49:33;;;;;;;11.43;9.47;;;17.00;21.30;;;;;;4987166;28;20855;-82
2023/04/28 07:52:01;;;;;;;11.40;9.47;;;17.50;1.00;;;;;;4989073;28;20424;-81
2023/04/28 07:54:29;;;;;;;11.10;9.77;;;17.60;1.00;;;;;;4985954;28;20586;-82
2023/04/28 07:57:21;;;;;;;11.57;9.63;;;17.80;1.00;;;;;;4986004;28;20436;-83
2023/04/28 08:00:00;;;;;;;13.50;9.80;;;17.40;1.00;;;;;;4996761;28;20531;-82
2023/04/28 08:02:26;;;;;;;9.83;8.83;;;17.40;1.00;;;;;;4988226;28;20449;-83
2023/04/28 08:04:59;;;;;;;12.87;8.27;;;18.60;1.00;;;;;;4986271;28;20449;-83
2023/04/28 08:07:31;;;;;;;10.73;9.40;;;19.60;1.00;;;;;;5009245;28;20504;-82
2023/04/28 08:09:56;;;;;;;10.37;9.27;;;19.50;99.90;;;;;;5007713;28;20419;-79
2023/04/28 08:12:22;;;;;;;10.50;9.07;;;19.10;99.90;;;;;;4984132;28;20436;-81
2023/04/28 08:14:48;;;;;;;12.70;10.50;;;18.70;99.90;;;;;;5004714;28;20210;-82
2023/04/28 08:17:13;;;;;;;12.10;9.20;;;18.40;99.90;;;;;;5000297;28;20194;-84
2023/04/28 08:19:39;;;;;;;9.93;8.33;;;18.20;99.90;;;;;;4984712;28;20282;-81
2023/04/28 08:22:06;;;;;;;10.13;8.67;;;18.10;99.90;;;;;;4987774;28;20191;-81
2023/04/28 08:24:34;;;;;;;10.53;9.43;;;18.10;1.00;;;;;;5002783;28;20658;-81
2023/04/28 08:27:23;;;;;;;11.03;8.80;;;18.00;1.00;;;;;;4987456;28;20493;-85
2023/04/28 08:29:49;;;;;;;11.23;8.97;;;17.80;1.00;;;;;;5002767;28;20444;-84
2023/04/28 08:32:14;;;;;;;12.50;10.20;;;17.50;1.00;;;;;;5010722;28;20615;-83
2023/04/28 08:34:40;;;;;;;12.10;10.20;;;17.30;1.00;;;;;;5009776;28;20204;-83
2023/04/28 08:37:06;;;;;;;13.00;10.80;;;17.20;1.00;;;;;;5011475;28;20199;-82
2023/04/28 08:39:33;;;;;;;13.93;10.13;;;17.00;1.00;;;;;;4995216;28;20218;-83
2023/04/28 08:41:58;;;;;;;10.03;9.03;;;16.90;99.90;;;;;;5009957;28;20183;-81
2023/04/28 08:44:24;;;;;;;16.63;12.57;;;16.90;99.90;;;;;;5003856;28;20466;-82
2023/04/28 08:46:55;;;;;;;15.53;13.43;;;16.80;99.90;;;;;;4988509;28;20179;-81
2023/04/28 08:49:29;;;;;;;14.97;10.63;;;16.70;1.00;;;;;;4999796;28;20215;-81
2023/04/28 08:51:58;;;;;;;12.60;10.67;;;16.80;1.00;;;;;;5005931;28;20433;-82
2023/04/28 08:54:29;;;;;;;16.00;11.53;;;16.90;28.80;;;;;;5002965;28;20492;-82
2023/04/28 08:56:55;;;;;;;17.90;12.30;;;17.00;99.90;;;;;;4988334;28;20442;-83
2023/04/28 09:02:51;;;;;;;12.30;10.97;;;17.00;99.90;;;;;;5002018;28;20513;-81
2023/04/28 09:05:16;;;;;;;12.83;11.43;;;16.90;1.00;;;;;;4999327;28;20450;-82
2023/04/28 09:07:45;;;;;;;12.47;10.83;;;16.80;1.00;;;;;;4996804;28;20305;-83
2023/04/28 09:10:18;;;;;;;14.40;11.00;;;16.80;77.20;;;;;;4996074;28;20252;-81
2023/04/28 09:12:44;;;;;;;13.33;11.20;;;16.80;99.90;;;;;;4994300;28;20445;-82
2023/04/28 09:15:10;;;;;;;14.53;11.80;;;16.90;99.90;;;;;;4997094;28;20953;-82
2023/04/28 09:17:51;;;;;;;12.30;10.90;;;17.00;99.90;;;;;;5000939;28;20192;-82
2023/04/28 09:20:22;;;;;;;13.13;11.00;;;17.10;99.90;;;;;;4987175;28;21004;-80
2023/04/28 09:22:48;;;;;;;12.43;10.70;;;17.20;99.90;;;;;;5002215;28;20443;-81
2023/04/28 09:25:15;;;;;;;12.83;11.63;;;17.40;99.90;;;;;;4989335;28;20468;-83
2023/04/28 09:27:40;;;;;;;13.40;11.47;;;17.50;99.90;;;;;;4997409;28;20498;-83
2023/04/28 09:30:07;;;;;;;10.80;9.80;;;17.50;99.90;;;;;;5000141;28;20448;-83
2023/04/28 09:32:33;;;;;;;12.77;10.87;;;17.40;1.00;;;;;;4997826;28;20185;-83
2023/04/28 09:34:58;;;;;;;11.90;10.70;;;17.40;1.00;;;;;;5005865;28;20471;-83
2023/04/28 09:37:29;;;;;;;10.80;9.67;;;17.30;75.30;;;;;;5007504;28;20609;-81
2023/04/28 09:39:55;;;;;;;12.63;8.57;;;17.30;1.00;;;;;;5007824;28;20199;-83
2023/04/28 09:42:33;;;;;;;13.83;9.43;;;17.30;1.00;;;;;;5006258;28;20435;-82
2023/04/28 09:45:06;;;;;;;9.63;8.70;;;17.30;99.90;;;;;;5004029;28;20204;-83
2023/04/28 09:47:34;;;;;;;10.80;9.70;;;17.20;1.00;;;;;;5000360;28;20470;-80
2023/04/28 09:50:27;;;;;;;;;;;;;;;;;;;;;
2023/04/28 09:52:56;;;;;;;12.20;9.80;;;17.20;38.20;;;;;;5005842;28;20466;-82
2023/04/28 09:55:23;;;;;;;9.40;8.50;;;17.20;99.90;;;;;;5008493;28;20472;-83
2023/04/28 09:57:53;;;;;;;10.07;8.73;;;17.20;99.90;;;;;;5004222;28;20436;-83
2023/04/28 10:00:19;;;;;;;9.40;8.50;;;17.20;99.90;;;;;;5008181;28;20449;-82
2023/04/28 10:02:45;;;;;;;11.77;8.87;;;17.20;85.20;;;;;;5005842;28;20443;-83
2023/04/28 10:05:11;;;;;;;9.90;7.87;;;17.20;99.90;;;;;;5001541;28;20463;-81
2023/04/28 10:07:40;;;;;;;9.70;8.70;;;17.20;99.90;;;;;;5005470;28;20226;-81
2023/04/28 10:10:06;;;;;;;12.20;9.20;;;17.20;99.90;;;;;;4991708;28;20419;-83
2023/04/28 10:12:32;;;;;;;10.50;9.50;;;17.30;99.90;;;;;;5004687;28;20505;-83
2023/04/28 10:14:59;;;;;;;9.93;8.80;;;17.50;99.90;;;;;;5008869;28;20444;-83
2023/04/28 10:17:25;;;;;;;11.20;9.07;;;17.80;99.90;;;;;;4985234;28;20194;-81
2023/04/28 10:19:53;;;;;;;15.43;8.03;;;17.90;1.00;;;;;;5000821;28;20438;-82
2023/04/28 10:22:44;;;;;;;11.00;7.73;;;18.30;99.90;;;;;;4979977;28;20526;-81
2023/04/28 10:25:34;;;;;;;8.13;7.33;;;19.40;99.90;;;;;;4991864;28;20887;-83
2023/04/28 10:28:04;;;;;;;6.80;6.20;;;21.70;1.00;;;;;;4996853;28;20467;-82
2023/04/28 10:30:30;;;;;;;7.43;6.83;;;22.30;99.90;;;;;;4996106;28;20478;-82
2023/04/28 10:33:10;;;;;;;10.77;6.90;;;22.70;1.00;;;;;;5003502;28;20440;-78
2023/04/28 10:35:43;;;;;;;9.67;7.07;;;22.90;1.00;;;;;;4980079;28;20220;-82
2023/04/28 10:38:27;;;;;;;8.00;6.80;;;22.70;1.00;;;;;;5003327;28;20456;-80
2023/04/28 10:40:53;;;;;;;7.57;6.97;;;22.30;1.00;;;;;;5005672;28;20443;-82
2023/04/28 10:43:25;;;;;;;7.80;7.10;;;21.70;1.00;;;;;;4990241;28;20453;-82
2023/04/28 10:45:54;;;;;;;7.87;7.07;;;21.20;1.00;;;;;;5002673;28;20529;-81
2023/04/28 10:48:21;;;;;;;7.10;6.50;;;20.70;1.00;;;;;;5008603;28;20545;-82
2023/04/28 10:51:04;;;;;;;8.80;7.90;;;20.30;1.00;;;;;;5007835;28;20442;-81
2023/04/28 10:53:45;;;;;;;7.23;6.57;;;20.10;1.00;;;;;;5001242;28;20472;-79
2023/04/28 10:56:20;;;;;;;7.73;7.13;;;20.00;6.50;;;;;;5008393;28;20439;-81
2023/04/28 10:58:49;;;;;;;8.37;7.03;;;20.10;22.70;;;;;;4987184;28;20443;-81
2023/04/28 11:01:20;;;;;;;7.40;6.60;;;20.50;6.10;;;;;;5003817;28;20447;-81
2023/04/28 11:03:50;;;;;;;7.27;6.67;;;21.50;1.00;;;;;;5005292;28;20471;-82
2023/04/28 11:06:27;;;;;;;7.97;7.17;;;22.40;1.00;;;;;;5007892;28;20443;-79
2023/04/28 11:08:55;;;;;;;6.93;6.33;;;23.60;99.90;;;;;;5006584;28;20838;-81
2023/04/28 11:11:33;;;;;;;7.27;6.57;;;24.30;99.90;;;;;;4984064;28;20446;-78
2023/04/28 11:14:17;;;;;;;6.37;5.87;;;24.90;99.90;;;;;;4995829;28;20454;-80
2023/04/28 11:16:59;;;;;;;5.50;5.10;;;26.40;99.90;;;;;;4977519;28;20434;-80
2023/04/28 11:19:27;;;;;;;6.10;5.67;;;27.30;99.90;;;;;;4976441;28;20447;-82
2023/04/28 11:21:55;;;;;;;7.10;6.27;;;27.50;99.90;;;;;;4994108;28;20897;-80
2023/04/28 11:24:21;;;;;;;6.00;5.40;;;27.60;99.90;;;;;;4998517;28;20469;-81
2023/04/28 11:26:47;;;;;;;6.77;4.90;;;27.20;99.90;;;;;;4991045;28;20446;-77
2023/04/28 11:29:14;;;;;;;5.93;5.43;;;26.40;99.90;;;;;;4996270;28;20481;-79
2023/04/28 11:31:40;;;;;;;7.23;5.03;;;25.50;99.90;;;;;;5002145;28;20213;-81
2023/04/28 11:34:13;;;;;;;5.20;4.70;;;24.80;99.90;;;;;;5010156;28;20459;-81
2023/04/28 11:36:40;;;;;;;5.57;5.07;;;24.20;99.90;;;;;;5009955;28;20431;-80
2023/04/28 11:39:10;;;;;;;6.70;6.10;;;24.00;99.90;;;;;;5012174;28;20541;-83
2023/04/28 11:41:38;;;;;;;6.70;6.00;;;23.90;99.90;;;;;;5007472;28;20520;-81
2023/04/28 11:44:17;;;;;;;8.70;5.83;;;24.00;99.90;;;;;;5009133;28;20475;-77
2023/04/28 11:46:54;;;;;;;6.00;5.40;;;24.00;99.90;;;;;;4996362;28;20443;-81
2023/04/28 11:49:23;;;;;;;10.23;5.57;;;24.40;99.90;;;;;;4999321;28;20622;-80
2023/04/28 11:51:52;;;;;;;6.17;5.67;;;25.10;99.90;;;;;;4999429;28;20439;-79
2023/04/28 11:54:21;;;;;;;8.00;5.40;;;25.20;99.90;;;;;;4979364;28;20465;-81
2023/04/28 11:56:47;;;;;;;5.70;5.20;;;25.30;99.90;;;;;;5004081;28;20442;-78
2023/04/28 11:59:13;;;;;;;5.67;5.00;;;25.70;99.90;;;;;;5003487;28;20800;-83
2023/04/28 12:01:57;;;;;;;5.07;4.67;;;25.70;99.90;;;;;;4995646;28;20680;-80
2023/04/28 12:04:37;;;;;;;5.80;5.13;;;26.70;99.90;;;;;;4997129;28;20283;-82
2023/04/28 12:07:17;;;;;;;5.50;4.20;;;26.80;99.90;;;;;;4982032;28;20457;-80
2023/04/28 12:09:48;;;;;;;4.70;4.30;;;27.20;99.90;;;;;;4995568;28;20438;-79
2023/04/28 12:12:17;;;;;;;4.83;4.43;;;26.90;99.90;;;;;;4993151;28;20497;-81
2023/04/28 12:15:06;;;;;;;4.60;4.20;;;26.20;99.90;;;;;;4998571;28;20466;-79
2023/04/28 12:17:37;;;;;;;4.33;4.03;;;25.50;99.90;;;;;;5006309;28;20466;-81
2023/04/28 12:20:08;;;;;;;5.77;3.97;;;26.20;99.90;;;;;;4998217;28;20518;-81
2023/04/28 12:22:48;;;;;;;3.90;3.50;;;27.20;99.90;;;;;;5004186;28;20469;-81
2023/04/28 12:25:16;;;;;;;4.70;4.20;;;28.00;99.90;;;;;;5005592;28;20473;-83
2023/04/28 12:28:01;;;;;;;4.43;4.03;;;28.10;99.90;;;;;;4986340;28;20968;-81
2023/04/28 12:30:27;;;;;;;3.60;3.30;;;28.50;99.90;;;;;;4987712;28;20456;-81
2023/04/28 12:32:54;;;;;;;3.93;3.63;;;29.20;99.90;;;;;;5003752;28;20438;-82
2023/04/28 12:35:27;;;;;;;4.83;3.50;;;29.90;99.90;;;;;;4992177;28;20528;-80
2023/04/28 12:37:54;;;;;;;3.07;2.87;;;30.10;99.90;;;;;;4995796;28;20447;-81
2023/04/28 12:40:20;;;;;;;3.30;3.00;;;29.70;99.90;;;;;;4980700;28;20470;-81
2023/04/28 12:42:46;;;;;;;3.60;3.30;;;29.90;99.90;;;;;;5005222;28;20433;-80
2023/04/28 12:45:12;;;;;;;3.23;2.93;;;29.60;99.90;;;;;;5000806;28;20462;-81
2023/04/28 12:47:38;;;;;;;3.20;2.93;;;29.30;99.90;;;;;;5004577;28;20270;-81
2023/04/28 12:50:05;;;;;;;4.30;3.90;;;28.60;99.90;;;;;;5006545;28;20183;-82
2023/04/28 12:52:32;;;;;;;3.77;3.40;;;27.80;99.90;;;;;;5004501;28;20453;-81
2023/04/28 12:54:58;;;;;;;3.47;3.10;;;27.30;99.90;;;;;;5002937;28;20438;-81
2023/04/28 12:57:25;;;;;;;4.20;3.80;;;26.90;99.90;;;;;;5005570;28;20434;-81
2023/04/28 12:59:51;;;;;;;4.10;3.23;;;26.50;99.90;;;;;;5008760;28;20419;-81
2023/04/28 13:02:17;;;;;;;3.10;2.80;;;26.50;99.90;;;;;;4991713;28;20426;-81
2023/04/28 13:04:44;;;;;;;2.53;2.13;;;26.90;99.90;;;;;;5004592;28;20466;-82
2023/04/28 13:07:11;;;;;;;2.80;2.17;;;27.40;99.90;;;;;;5009687;28;20423;-82
2023/04/28 13:09:37;;;;;;;2.80;2.30;;;28.00;99.90;;;;;;5007239;28;20521;-82
2023/04/28 13:12:03;;;;;;;1.93;1.50;;;28.00;99.90;;;;;;4988997;28;20443;-80
2023/04/28 13:14:29;;;;;;;2.00;1.53;;;28.00;99.90;;;;;;5008338;28;20199;-82
2023/04/28 13:16:56;;;;;;;1.97;1.43;;;27.70;99.90;;;;;;5007495;28;20430;-83
2023/04/28 13:19:22;;;;;;;1.33;1.13;;;27.40;99.90;;;;;;4990974;28;21055;-82
2023/04/28 13:21:47;;;;;;;1.60;1.00;;;27.50;99.90;;;;;;5009741;28;20433;-82
2023/04/28 13:24:13;;;;;;;2.00;1.40;;;27.60;99.90;;;;;;5005461;28;20199;-81
2023/04/28 13:26:39;;;;;;;1.83;1.23;;;27.50;99.90;;;;;;4991310;28;20186;-80
2023/04/28 13:29:07;;;;;;;2.00;1.50;;;27.50;99.90;;;;;;4998720;28;20289;-80
2023/04/28 13:31:32;;;;;;;1.50;1.27;;;27.40;99.90;;;;;;5004250;28;20192;-81
2023/04/28 13:34:00;;;;;;;2.00;1.70;;;27.50;99.90;;;;;;5003496;28;20480;-82
2023/04/28 13:36:28;;;;;;;1.60;1.50;;;27.50;99.90;;;;;;5008590;28;20175;-83